createdAt,value
2022-11-14T00:15:22.924Z,5.91
2022-11-14T00:31:05.915Z,5.91
2022-11-14T00:46:48.365Z,5.72
2022-11-14T01:02:31.390Z,5.56
2022-11-14T01:18:13.531Z,5.33
2022-11-14T01:33:56.122Z,5.18
2022-11-14T01:49:39.202Z,5.29
2022-11-14T02:05:21.983Z,5.55
2022-11-14T02:21:04.889Z,5.49
2022-11-14T02:36:47.605Z,5.49
2022-11-14T02:52:30.613Z,5.37
2022-11-14T03:08:13.047Z,5.33
2022-11-14T03:23:55.925Z,5.27
2022-11-14T03:39:38.612Z,5.17
2022-11-14T03:55:21.395Z,5.08
2022-11-14T04:11:03.653Z,4.98
2022-11-14T04:26:46.021Z,4.96
2022-11-14T04:42:28.248Z,5.03
2022-11-14T04:58:10.965Z,5.04
2022-11-14T05:13:53.352Z,5.08
2022-11-14T05:29:36.047Z,5.12
2022-11-14T05:45:18.741Z,5.19
2022-11-14T06:01:01.697Z,5.24
2022-11-14T06:16:43.979Z,5.16
2022-11-14T06:32:26.152Z,5.11
2022-11-14T06:48:09.237Z,5.14
2022-11-14T07:03:51.793Z,5.25
2022-11-14T07:19:34.233Z,5.39
2022-11-14T07:35:16.976Z,5.49
2022-11-14T07:50:59.875Z,5.75
2022-11-14T08:06:42.137Z,5.98
2022-11-14T08:22:24.641Z,6.29
2022-11-14T08:38:06.783Z,6.69
2022-11-14T08:53:49.327Z,7.15
2022-11-14T09:09:32.321Z,7.53
2022-11-14T09:25:15.095Z,8.59
2022-11-14T09:40:57.478Z,9.32
2022-11-14T09:56:39.593Z,10.43
2022-11-14T10:12:22.650Z,10.9
2022-11-14T10:28:05.668Z,11.69
2022-11-14T10:43:48.048Z,12.48
2022-11-14T10:59:31.086Z,12.93
2022-11-14T11:15:13.304Z,12.74
2022-11-14T11:30:56.342Z,11.8
2022-11-14T11:46:38.520Z,11.17
2022-11-14T12:02:20.871Z,10.72
2022-11-14T12:18:03.775Z,10.56
2022-11-14T12:33:46.451Z,10.81
2022-11-14T12:49:29.061Z,13.52
2022-11-14T13:05:11.045Z,17.33
2022-11-14T13:20:53.284Z,17.37
2022-11-14T13:36:35.994Z,15.74
2022-11-14T13:52:18.540Z,14.54
2022-11-14T14:08:01.172Z,12.59
2022-11-14T14:23:43.533Z,11.45
2022-11-14T14:39:26.546Z,10.64
2022-11-14T14:55:08.827Z,9.93
2022-11-14T15:10:51.112Z,9.22
2022-11-14T15:26:33.857Z,8.6
2022-11-14T15:27:21.218Z,8.76
2022-11-14T15:43:03.767Z,8.14
2022-11-14T15:58:46.131Z,7.71
2022-11-14T16:14:28.626Z,7.36
2022-11-14T16:30:11.212Z,7.15
2022-11-14T16:45:53.776Z,6.92
2022-11-14T17:01:35.927Z,6.86
2022-11-14T17:17:18.452Z,6.45
2022-11-14T17:33:00.963Z,6.16
2022-11-14T17:48:44.024Z,5.91
2022-11-14T18:04:26.371Z,5.79
2022-11-14T18:20:08.996Z,5.66
2022-11-14T18:35:51.708Z,5.5
2022-11-14T18:51:34.512Z,5.44
2022-11-14T19:07:17.195Z,5.42
2022-11-14T19:22:59.867Z,5.34
2022-11-14T19:38:42.538Z,5.11
2022-11-14T19:54:24.911Z,4.94
2022-11-14T20:10:07.332Z,4.88
2022-11-14T20:25:50.406Z,4.76
2022-11-14T20:41:32.590Z,4.73
2022-11-14T20:57:15.732Z,4.62
2022-11-14T21:12:57.996Z,4.51
2022-11-14T21:28:41.109Z,4.33
2022-11-14T21:44:23.713Z,4.33
2022-11-14T22:00:06.689Z,4.21
2022-11-14T22:15:49.913Z,4.13
2022-11-14T22:31:32.863Z,4
2022-11-14T22:47:15.774Z,3.86
2022-11-14T23:02:58.112Z,3.85
2022-11-14T23:18:41.014Z,3.82
2022-11-14T23:34:23.822Z,3.84
2022-11-14T23:50:06.003Z,3.81
